createdAt,value
2017-07-27T00:00:52.341Z,25.27
2017-07-27T00:03:18.404Z,24.97
2017-07-27T00:05:44.362Z,25.37
2017-07-27T00:08:10.313Z,26.17
2017-07-27T00:10:43.312Z,26.57
2017-07-27T00:13:09.303Z,28.03
2017-07-27T00:15:35.283Z,26.80
2017-07-27T00:18:02.016Z,29.33
2017-07-27T00:20:28.768Z,29.23
2017-07-27T00:22:54.709Z,28.47
2017-07-27T00:25:20.697Z,28.70
2017-07-27T00:27:46.641Z,26.00
2017-07-27T00:30:12.597Z,28.10
2017-07-27T00:32:38.593Z,27.77
2017-07-27T00:35:04.573Z,27.87
2017-07-27T00:37:30.515Z,32.00
2017-07-27T00:39:56.488Z,26.80
2017-07-27T00:42:22.429Z,26.50
2017-07-27T00:44:48.373Z,26.63
2017-07-27T00:47:14.353Z,26.53
2017-07-27T00:49:40.297Z,26.03
2017-07-27T00:52:06.280Z,25.93
2017-07-27T00:54:32.220Z,26.37
2017-07-27T00:56:58.157Z,25.97
2017-07-27T00:59:24.881Z,24.80
2017-07-27T01:01:50.836Z,26.10
2017-07-27T01:04:16.877Z,24.80
2017-07-27T01:06:42.825Z,24.97
2017-07-27T01:09:08.777Z,25.07
2017-07-27T01:11:34.764Z,25.30
2017-07-27T01:14:00.706Z,21.87
2017-07-27T01:16:26.645Z,23.80
2017-07-27T01:18:52.660Z,23.13
2017-07-27T01:21:18.596Z,25.27
2017-07-27T01:23:44.617Z,23.23
2017-07-27T01:26:10.573Z,20.80
2017-07-27T01:28:37.261Z,21.83
2017-07-27T01:31:03.245Z,21.70
2017-07-27T01:33:29.181Z,22.00
2017-07-27T01:35:55.109Z,20.73
2017-07-27T01:38:21.121Z,21.60
2017-07-27T01:40:47.817Z,19.90
2017-07-27T01:43:13.774Z,22.27
2017-07-27T01:45:39.758Z,21.67
2017-07-27T01:48:05.729Z,21.37
2017-07-27T01:50:31.665Z,20.73
2017-07-27T01:52:57.649Z,22.77
2017-07-27T01:55:23.596Z,21.10
2017-07-27T01:57:50.272Z,22.27
2017-07-27T02:00:16.233Z,21.70
2017-07-27T02:02:42.169Z,19.87
2017-07-27T02:05:08.164Z,20.37
2017-07-27T02:07:34.087Z,20.10
2017-07-27T02:10:00.008Z,24.07
2017-07-27T02:12:25.986Z,22.63
2017-07-27T02:14:51.918Z,22.63
2017-07-27T02:17:17.883Z,20.43
2017-07-27T02:19:44.560Z,19.33
2017-07-27T02:22:10.553Z,20.30
2017-07-27T02:24:36.508Z,21.03
2017-07-27T02:27:02.440Z,20.40
2017-07-27T02:29:29.149Z,20.70
2017-07-27T02:31:55.089Z,20.23
2017-07-27T02:34:21.056Z,20.97
2017-07-27T02:36:47.046Z,23.60
2017-07-27T02:39:12.995Z,21.10
2017-07-27T02:41:39.693Z,23.50
2017-07-27T02:44:05.658Z,19.40
2017-07-27T02:46:31.596Z,20.03
2017-07-27T02:48:57.564Z,21.97
2017-07-27T02:51:23.489Z,21.13
2017-07-27T02:53:49.458Z,19.83
2017-07-27T02:56:15.411Z,20.53
2017-07-27T02:58:41.408Z,20.50
2017-07-27T03:01:07.345Z,19.77
2017-07-27T03:03:33.285Z,27.23
2017-07-27T03:06:00.001Z,20.00
2017-07-27T03:08:26.721Z,22.43
2017-07-27T03:10:52.732Z,20.10
2017-07-27T03:13:18.665Z,19.80
2017-07-27T03:15:44.618Z,21.20
2017-07-27T03:18:10.597Z,18.17
2017-07-27T03:20:36.524Z,20.67
2017-07-27T03:23:02.489Z,20.40
2017-07-27T03:25:28.415Z,20.50
2017-07-27T03:27:54.397Z,21.03
2017-07-27T03:30:21.081Z,20.83
2017-07-27T03:32:47.016Z,20.17
2017-07-27T03:35:13.008Z,19.40
2017-07-27T03:37:38.985Z,25.77
2017-07-27T03:40:04.935Z,20.40
2017-07-27T03:42:30.916Z,22.33
2017-07-27T03:44:56.849Z,20.23
2017-07-27T03:47:22.785Z,20.20
2017-07-27T03:49:49.485Z,21.73
2017-07-27T03:52:15.420Z,21.23
2017-07-27T03:54:41.396Z,19.33
2017-07-27T03:57:07.325Z,20.30
2017-07-27T03:59:33.304Z,20.07
2017-07-27T04:01:59.247Z,24.93
2017-07-27T04:04:25.176Z,23.00
2017-07-27T04:06:51.144Z,20.53
2017-07-27T04:09:17.076Z,20.30
2017-07-27T04:11:43.014Z,22.87
2017-07-27T04:14:08.985Z,20.97
2017-07-27T04:16:35.661Z,18.40
2017-07-27T04:19:01.592Z,21.37
2017-07-27T04:21:27.628Z,20.83
2017-07-27T04:23:53.556Z,21.97
2017-07-27T04:26:19.493Z,22.87
2017-07-27T04:28:45.680Z,21.90
2017-07-27T04:31:11.617Z,20.83
2017-07-27T04:33:37.565Z,21.17
2017-07-27T04:36:04.265Z,21.80
2017-07-27T04:38:30.213Z,21.97
2017-07-27T04:40:56.149Z,22.73
2017-07-27T04:43:22.124Z,22.23
2017-07-27T04:45:48.065Z,21.87
2017-07-27T04:48:14.018Z,20.80
2017-07-27T04:50:39.972Z,20.70
2017-07-27T04:53:05.962Z,21.47
2017-07-27T04:55:31.908Z,23.37
2017-07-27T04:57:58.729Z,22.70
2017-07-27T05:00:24.696Z,21.67
2017-07-27T05:02:50.632Z,24.80
2017-07-27T05:05:16.614Z,22.63
2017-07-27T05:07:42.571Z,21.93
2017-07-27T05:10:08.513Z,21.23
2017-07-27T05:12:34.484Z,22.07
2017-07-27T05:15:00.432Z,18.90
2017-07-27T05:17:27.157Z,20.17
2017-07-27T05:19:53.095Z,19.60
2017-07-27T05:22:19.032Z,20.70
2017-07-27T05:24:45.017Z,20.83
2017-07-27T05:27:10.969Z,20.70
2017-07-27T05:29:36.917Z,21.27
2017-07-27T05:32:02.892Z,19.40
2017-07-27T05:34:28.832Z,19.03
2017-07-27T05:36:54.822Z,19.43
2017-07-27T05:39:21.504Z,19.67
2017-07-27T05:41:47.445Z,21.17
2017-07-27T05:44:13.412Z,21.13
2017-07-27T05:46:39.365Z,20.70
2017-07-27T05:49:05.344Z,22.73
2017-07-27T05:51:31.293Z,19.83
2017-07-27T05:53:57.978Z,19.50
2017-07-27T05:56:23.982Z,19.83
2017-07-27T05:58:49.918Z,19.90
2017-07-27T06:01:15.904Z,20.73
2017-07-27T06:03:41.921Z,18.50
2017-07-27T06:06:07.864Z,21.80
2017-07-27T06:08:34.592Z,19.50
2017-07-27T06:11:00.532Z,19.70
2017-07-27T06:13:26.472Z,19.13
2017-07-27T06:15:52.450Z,19.73
2017-07-27T06:18:18.445Z,18.40
2017-07-27T06:20:44.393Z,16.63
2017-07-27T06:23:10.356Z,17.30
2017-07-27T06:25:36.350Z,18.90
2017-07-27T06:28:02.306Z,18.20
2017-07-27T06:30:28.284Z,17.17
2017-07-27T06:32:54.225Z,17.07
2017-07-27T06:35:20.169Z,17.47
2017-07-27T06:37:46.880Z,19.37
2017-07-27T06:40:12.830Z,18.47
2017-07-27T06:42:38.805Z,16.53
2017-07-27T06:45:05.520Z,17.37
2017-07-27T06:47:31.488Z,21.10
2017-07-27T06:49:57.488Z,17.27
2017-07-27T06:52:23.428Z,21.93
2017-07-27T06:54:49.364Z,16.87
2017-07-27T06:57:15.344Z,19.53
2017-07-27T06:59:41.306Z,17.40
2017-07-27T07:02:07.280Z,17.23
2017-07-27T07:04:33.217Z,16.53
2017-07-27T07:06:59.151Z,16.53
2017-07-27T07:09:25.156Z,15.70
2017-07-27T07:11:51.088Z,15.97
2017-07-27T07:14:17.058Z,16.20
2017-07-27T07:16:43.027Z,17.40
2017-07-27T07:19:08.969Z,17.07
2017-07-27T07:21:34.935Z,17.40
2017-07-27T07:24:00.878Z,17.60
2017-07-27T07:26:26.818Z,15.37
2017-07-27T07:28:52.797Z,17.37
2017-07-27T07:31:18.733Z,15.37
2017-07-27T07:33:44.668Z,14.63
2017-07-27T07:36:10.648Z,14.40
2017-07-27T07:38:36.600Z,13.53
2017-07-27T07:41:02.569Z,13.83
2017-07-27T07:43:28.508Z,14.43
2017-07-27T07:45:54.485Z,13.47
2017-07-27T07:48:20.456Z,14.53
2017-07-27T07:50:46.424Z,14.73
2017-07-27T07:53:12.361Z,14.73
2017-07-27T07:55:39.525Z,15.70
2017-07-27T07:58:05.476Z,14.97
2017-07-27T08:00:31.413Z,14.30
2017-07-27T08:02:58.161Z,13.47
2017-07-27T08:05:24.105Z,14.80
2017-07-27T08:07:50.112Z,14.23
2017-07-27T08:10:22.149Z,13.10
2017-07-27T08:12:48.120Z,13.00
2017-07-27T08:15:14.799Z,12.93
2017-07-27T08:17:40.809Z,12.97
2017-07-27T08:20:06.780Z,12.90
2017-07-27T08:22:32.713Z,13.20
2017-07-27T08:24:58.664Z,13.23
2017-07-27T08:27:25.368Z,11.73
2017-07-27T08:29:51.365Z,13.07
2017-07-27T08:32:17.325Z,13.40
2017-07-27T08:34:43.264Z,13.90
2017-07-27T08:37:09.253Z,12.53
2017-07-27T08:39:35.216Z,13.13
2017-07-27T08:42:01.193Z,13.07
2017-07-27T08:44:27.136Z,11.67
2017-07-27T08:46:53.067Z,10.70
2017-07-27T08:49:19.032Z,11.20
2017-07-27T08:51:44.984Z,11.20
2017-07-27T08:54:10.956Z,12.73
2017-07-27T08:56:36.944Z,12.13
2017-07-27T08:59:02.957Z,11.67
2017-07-27T09:01:28.897Z,11.80
2017-07-27T09:03:54.831Z,10.10
2017-07-27T09:06:20.809Z,10.27
2017-07-27T09:08:46.764Z,10.60
2017-07-27T09:11:12.755Z,10.13
2017-07-27T09:13:38.688Z,9.77
2017-07-27T09:16:04.616Z,11.03
2017-07-27T09:18:30.585Z,10.40
2017-07-27T09:20:56.517Z,11.67
2017-07-27T09:23:22.488Z,11.17
2017-07-27T09:25:48.426Z,10.90
2017-07-27T09:28:14.456Z,10.63
2017-07-27T09:30:40.404Z,9.80
2017-07-27T09:33:06.341Z,9.80
2017-07-27T09:35:32.320Z,12.90
2017-07-27T09:37:58.252Z,10.73
2017-07-27T09:40:24.229Z,12.10
2017-07-27T09:42:50.920Z,12.93
2017-07-27T09:45:16.860Z,12.13
2017-07-27T09:47:43.575Z,11.17
2017-07-27T09:50:09.513Z,12.67
2017-07-27T09:52:35.528Z,11.73
2017-07-27T09:55:01.496Z,13.07
2017-07-27T09:57:33.525Z,11.43
2017-07-27T09:59:59.480Z,10.43
2017-07-27T10:02:26.196Z,11.23
2017-07-27T10:04:52.872Z,9.10
2017-07-27T10:07:18.803Z,11.60
2017-07-27T10:09:44.784Z,11.63
2017-07-27T10:12:10.748Z,9.90
2017-07-27T10:14:37.420Z,11.40
2017-07-27T10:17:03.388Z,10.50
2017-07-27T10:19:30.108Z,12.53
2017-07-27T10:21:56.055Z,10.00
2017-07-27T10:24:21.988Z,10.10
2017-07-27T10:26:47.965Z,10.53
2017-07-27T10:29:13.936Z,9.60
2017-07-27T10:31:39.918Z,9.70
2017-07-27T10:34:05.857Z,9.53
2017-07-27T10:36:32.576Z,8.07
2017-07-27T10:38:59.260Z,8.33
2017-07-27T10:41:25.217Z,8.90
2017-07-27T10:43:51.944Z,8.47
2017-07-27T10:46:18.652Z,11.10
2017-07-27T10:48:44.595Z,7.60
2017-07-27T10:51:10.593Z,8.63
2017-07-27T10:53:36.527Z,8.70
2017-07-27T10:56:02.476Z,8.10
2017-07-27T10:58:28.455Z,10.10
2017-07-27T11:00:54.431Z,8.53
2017-07-27T11:03:20.364Z,7.03
2017-07-27T11:05:46.317Z,8.07
2017-07-27T11:08:12.304Z,10.53
2017-07-27T11:10:38.232Z,8.80
2017-07-27T11:13:04.218Z,8.63
2017-07-27T11:15:30.152Z,8.10
2017-07-27T11:17:56.820Z,8.57
2017-07-27T11:20:22.794Z,7.47
2017-07-27T11:22:48.724Z,9.47
2017-07-27T11:25:14.656Z,8.67
2017-07-27T11:27:40.651Z,8.47
2017-07-27T11:30:06.593Z,9.93
2017-07-27T11:32:32.525Z,8.37
2017-07-27T11:34:59.236Z,8.20
2017-07-27T11:37:25.200Z,8.10
2017-07-27T11:39:51.146Z,10.40
2017-07-27T11:42:17.128Z,11.00
2017-07-27T11:44:43.082Z,10.53
2017-07-27T11:47:09.826Z,10.93
2017-07-27T11:49:35.772Z,13.00
2017-07-27T11:52:01.709Z,11.90
2017-07-27T11:54:27.681Z,12.87
2017-07-27T11:57:00.609Z,11.77
2017-07-27T11:59:27.332Z,13.20
2017-07-27T12:01:54.027Z,14.67
2017-07-27T12:04:19.997Z,14.53
2017-07-27T12:06:46.028Z,13.30
2017-07-27T12:09:11.966Z,14.83
2017-07-27T12:11:37.901Z,14.80
2017-07-27T12:14:03.868Z,14.50
2017-07-27T12:16:29.873Z,15.13
2017-07-27T12:18:55.814Z,17.13
2017-07-27T12:21:21.753Z,15.30
2017-07-27T12:23:47.704Z,16.90
2017-07-27T12:26:13.694Z,14.30
2017-07-27T12:28:39.637Z,15.20
2017-07-27T12:31:05.610Z,15.23
2017-07-27T12:33:31.569Z,15.83
2017-07-27T12:35:58.257Z,16.57
2017-07-27T12:38:24.224Z,15.37
2017-07-27T12:40:50.192Z,16.70
2017-07-27T12:43:16.191Z,17.97
2017-07-27T12:45:42.137Z,15.47
2017-07-27T12:48:08.101Z,15.90
2017-07-27T12:50:34.064Z,15.77
2017-07-27T12:53:00.024Z,16.20
2017-07-27T12:55:25.960Z,16.43
2017-07-27T12:57:52.668Z,15.50
2017-07-27T13:00:18.604Z,15.30
2017-07-27T13:02:44.601Z,13.67
2017-07-27T13:05:11.280Z,9.63
2017-07-27T13:07:37.227Z,7.03
2017-07-27T13:10:03.936Z,8.03
2017-07-27T13:12:29.875Z,7.73
2017-07-27T13:14:55.844Z,7.93
2017-07-27T13:17:21.828Z,7.17
2017-07-27T13:19:47.765Z,8.00
2017-07-27T13:22:13.713Z,7.97
2017-07-27T13:24:39.701Z,8.30
2017-07-27T13:27:05.725Z,7.93
2017-07-27T13:29:31.660Z,8.67
2017-07-27T13:31:57.597Z,9.43
2017-07-27T13:34:23.560Z,8.27
2017-07-27T13:36:49.491Z,7.60
2017-07-27T13:39:15.467Z,9.00
2017-07-27T13:41:41.456Z,8.40
2017-07-27T13:44:08.158Z,8.90
2017-07-27T13:46:34.120Z,9.47
2017-07-27T13:49:00.125Z,10.47
2017-07-27T13:51:26.108Z,9.20
2017-07-27T13:53:52.784Z,8.93
2017-07-27T13:56:18.729Z,9.90
2017-07-27T13:58:44.700Z,10.03
2017-07-27T14:01:10.648Z,10.57
2017-07-27T14:03:36.652Z,10.10
2017-07-27T14:06:02.585Z,11.40
2017-07-27T14:08:28.552Z,11.13
2017-07-27T14:10:54.486Z,10.50
2017-07-27T14:13:20.565Z,10.87
2017-07-27T14:15:46.508Z,11.20
2017-07-27T14:18:12.454Z,9.90
2017-07-27T14:20:38.449Z,9.30
2017-07-27T14:23:04.394Z,8.20
2017-07-27T14:25:30.337Z,8.60
2017-07-27T14:27:57.176Z,8.33
2017-07-27T14:30:23.112Z,8.80
2017-07-27T14:32:49.117Z,7.20
2017-07-27T14:35:15.836Z,7.83
2017-07-27T14:37:41.785Z,7.43
2017-07-27T14:40:07.770Z,8.37
2017-07-27T14:42:33.703Z,7.77
2017-07-27T14:44:59.659Z,7.20
2017-07-27T14:47:25.661Z,6.50
2017-07-27T14:49:51.596Z,6.90
2017-07-27T14:52:17.572Z,6.93
2017-07-27T14:54:43.517Z,7.20
2017-07-27T14:57:09.460Z,6.73
2017-07-27T14:59:35.423Z,6.53
2017-07-27T15:02:01.396Z,7.20
2017-07-27T15:04:27.361Z,7.37
2017-07-27T15:06:53.378Z,6.57
2017-07-27T15:09:20.052Z,6.13
2017-07-27T15:11:46.007Z,5.37
2017-07-27T15:14:11.944Z,6.77
2017-07-27T15:16:37.928Z,5.70
2017-07-27T15:19:03.867Z,6.43
2017-07-27T15:21:29.799Z,5.70
2017-07-27T15:23:55.765Z,5.50
2017-07-27T15:26:21.703Z,5.40
2017-07-27T15:28:47.687Z,6.20
2017-07-27T15:31:13.637Z,6.00
2017-07-27T15:33:39.571Z,6.17
2017-07-27T15:36:05.549Z,7.90
2017-07-27T15:38:31.494Z,6.30
2017-07-27T15:40:57.432Z,7.43
2017-07-27T15:43:23.412Z,6.70
2017-07-27T15:45:49.400Z,6.30
2017-07-27T15:48:16.068Z,7.30
2017-07-27T15:50:42.052Z,6.87
2017-07-27T15:53:07.990Z,8.73
2017-07-27T15:55:33.976Z,7.13
2017-07-27T15:57:59.912Z,6.53
2017-07-27T16:00:25.832Z,6.37
2017-07-27T16:02:51.845Z,8.00
2017-07-27T16:05:17.771Z,8.10
2017-07-27T16:07:44.448Z,7.50
2017-07-27T16:10:10.434Z,9.63
2017-07-27T16:12:36.405Z,6.93
2017-07-27T16:15:02.336Z,7.30
2017-07-27T16:17:29.012Z,6.73
2017-07-27T16:19:54.977Z,7.30
2017-07-27T16:22:20.925Z,8.10
2017-07-27T16:24:46.901Z,9.20
2017-07-27T16:27:12.836Z,8.13
2017-07-27T16:29:38.793Z,7.60
2017-07-27T16:32:04.857Z,8.33
2017-07-27T16:34:30.791Z,7.53
2017-07-27T16:36:56.733Z,7.60
2017-07-27T16:39:22.717Z,7.43
2017-07-27T16:41:49.393Z,6.37
2017-07-27T16:44:15.333Z,6.70
2017-07-27T16:46:41.325Z,6.73
2017-07-27T16:49:07.288Z,7.93
2017-07-27T16:51:33.225Z,6.00
2017-07-27T16:53:59.249Z,6.47
2017-07-27T16:56:32.116Z,6.80
2017-07-27T16:58:58.081Z,7.57
2017-07-27T17:01:24.008Z,6.80
2017-07-27T17:03:49.973Z,6.93
2017-07-27T17:06:15.940Z,6.80
2017-07-27T17:08:41.885Z,6.77
2017-07-27T17:11:07.854Z,7.10
2017-07-27T17:13:33.794Z,6.83
2017-07-27T17:15:59.768Z,7.47
2017-07-27T17:18:25.740Z,7.40
2017-07-27T17:20:51.676Z,7.67
2017-07-27T17:23:17.688Z,7.70
2017-07-27T17:25:43.617Z,8.97
2017-07-27T17:28:09.567Z,9.03
2017-07-27T17:30:35.532Z,8.33
2017-07-27T17:33:01.464Z,7.90
2017-07-27T17:35:27.452Z,8.40
2017-07-27T17:37:53.389Z,7.37
2017-07-27T17:40:20.061Z,7.57
2017-07-27T17:42:46.025Z,10.53
2017-07-27T17:45:12.075Z,7.50
2017-07-27T17:47:38.011Z,7.80
2017-07-27T17:50:03.945Z,6.43
2017-07-27T17:52:29.909Z,7.47
2017-07-27T17:54:55.910Z,7.60
2017-07-27T17:57:21.840Z,7.47
2017-07-27T17:59:47.813Z,8.13
2017-07-27T18:02:13.757Z,8.00
2017-07-27T18:04:39.737Z,7.20
2017-07-27T18:07:05.721Z,8.07
2017-07-27T18:09:31.713Z,7.30
2017-07-27T18:11:58.409Z,7.70
2017-07-27T18:14:24.400Z,7.67
2017-07-27T18:16:50.345Z,7.03
2017-07-27T18:19:16.284Z,8.20
2017-07-27T18:21:42.272Z,7.47
2017-07-27T18:24:08.956Z,7.97
2017-07-27T18:26:34.888Z,8.00
2017-07-27T18:29:00.861Z,8.73
2017-07-27T18:31:26.809Z,7.80
2017-07-27T18:33:52.801Z,7.97
2017-07-27T18:36:18.749Z,7.27
2017-07-27T18:38:44.693Z,7.50
2017-07-27T18:41:10.680Z,7.90
2017-07-27T18:43:36.615Z,6.90
2017-07-27T18:46:02.583Z,6.43
2017-07-27T18:48:28.552Z,7.00
2017-07-27T18:50:54.492Z,6.63
2017-07-27T18:53:21.213Z,6.60
2017-07-27T18:55:47.887Z,7.00
2017-07-27T18:58:13.821Z,7.00
2017-07-27T19:00:39.854Z,6.83
2017-07-27T19:03:06.548Z,7.77
2017-07-27T19:05:32.515Z,7.73
2017-07-27T19:07:58.458Z,7.23
2017-07-27T19:10:24.401Z,7.50
2017-07-27T19:12:51.123Z,7.33
2017-07-27T19:15:17.805Z,6.87
2017-07-27T19:17:43.740Z,7.80
2017-07-27T19:20:09.722Z,8.70
2017-07-27T19:22:35.660Z,8.00
2017-07-27T19:25:01.625Z,7.97
2017-07-27T19:27:27.565Z,9.60
2017-07-27T19:29:53.532Z,8.00
2017-07-27T19:32:19.469Z,7.83
2017-07-27T19:34:45.440Z,8.50
2017-07-27T19:37:11.388Z,7.70
2017-07-27T19:39:37.394Z,7.83
2017-07-27T19:42:03.330Z,8.30
2017-07-27T19:44:29.268Z,7.93
2017-07-27T19:46:55.232Z,8.90
2017-07-27T19:49:21.173Z,9.93
2017-07-27T19:51:47.173Z,8.87
2017-07-27T19:54:13.897Z,8.00
2017-07-27T19:56:40.622Z,9.10
2017-07-27T19:59:07.340Z,8.40
2017-07-27T20:01:33.300Z,9.70
2017-07-27T20:03:59.312Z,11.40
2017-07-27T20:06:25.264Z,10.03
2017-07-27T20:08:51.213Z,9.63
2017-07-27T20:11:17.197Z,9.20
2017-07-27T20:13:43.136Z,10.43
2017-07-27T20:16:09.116Z,9.77
2017-07-27T20:18:35.056Z,9.70
2017-07-27T20:21:01.033Z,9.27
2017-07-27T20:23:27.009Z,10.50
2017-07-27T20:25:52.977Z,9.03
2017-07-27T20:28:18.961Z,8.70
2017-07-27T20:30:44.908Z,9.30
2017-07-27T20:33:10.905Z,8.07
2017-07-27T20:35:36.862Z,7.83
2017-07-27T20:38:02.804Z,9.57
2017-07-27T20:40:28.768Z,7.67
2017-07-27T20:42:54.754Z,9.40
2017-07-27T20:45:20.753Z,8.37
2017-07-27T20:47:46.748Z,8.77
2017-07-27T20:50:12.680Z,9.20
2017-07-27T20:52:38.702Z,8.63
2017-07-27T20:55:04.678Z,9.13
2017-07-27T20:57:30.625Z,11.67
2017-07-27T20:59:56.592Z,10.50
2017-07-27T21:02:22.524Z,8.70
2017-07-27T21:04:48.498Z,9.30
2017-07-27T21:07:14.468Z,8.40
2017-07-27T21:09:40.412Z,9.90
2017-07-27T21:12:06.388Z,10.03
2017-07-27T21:14:32.313Z,9.47
2017-07-27T21:16:58.256Z,8.90
2017-07-27T21:19:24.236Z,8.87
2017-07-27T21:21:50.179Z,10.00
2017-07-27T21:24:16.146Z,9.73
2017-07-27T21:26:42.168Z,9.20
2017-07-27T21:29:08.117Z,9.43
2017-07-27T21:31:34.101Z,9.83
2017-07-27T21:34:00.780Z,10.03
2017-07-27T21:36:26.720Z,10.23
2017-07-27T21:38:52.704Z,9.50
2017-07-27T21:41:18.640Z,8.83
2017-07-27T21:43:44.579Z,8.90
2017-07-27T21:46:11.332Z,9.17
2017-07-27T21:48:37.297Z,8.50
2017-07-27T21:51:03.228Z,9.10
2017-07-27T21:53:29.958Z,9.03
2017-07-27T21:55:56.644Z,7.30
2017-07-27T21:58:22.580Z,9.00
2017-07-27T22:00:49.282Z,8.27
2017-07-27T22:03:15.229Z,8.00
2017-07-27T22:05:41.225Z,8.50
2017-07-27T22:08:07.909Z,9.47
2017-07-27T22:10:33.841Z,7.47
2017-07-27T22:12:59.816Z,8.13
2017-07-27T22:15:25.754Z,7.73
2017-07-27T22:17:51.684Z,7.60
2017-07-27T22:20:18.389Z,8.60
2017-07-27T22:22:44.346Z,7.43
2017-07-27T22:25:10.329Z,8.53
2017-07-27T22:27:37.017Z,7.40
2017-07-27T22:30:02.948Z,8.27
2017-07-27T22:32:29.664Z,7.00
2017-07-27T22:34:55.604Z,7.77
2017-07-27T22:37:21.586Z,7.10
2017-07-27T22:39:47.532Z,7.33
2017-07-27T22:42:13.472Z,7.83
2017-07-27T22:44:39.453Z,7.00
2017-07-27T22:47:05.408Z,6.30
2017-07-27T22:49:31.339Z,7.40
2017-07-27T22:51:58.064Z,6.97
2017-07-27T22:54:24.761Z,7.30
2017-07-27T22:56:50.728Z,6.70
2017-07-27T22:59:16.672Z,7.17
2017-07-27T23:01:42.713Z,6.60
2017-07-27T23:04:09.391Z,6.90
2017-07-27T23:06:35.320Z,7.30
2017-07-27T23:09:01.308Z,7.90
2017-07-27T23:11:27.240Z,7.23
2017-07-27T23:13:53.246Z,6.67
2017-07-27T23:16:19.224Z,6.83
2017-07-27T23:18:45.177Z,7.37
2017-07-27T23:21:11.882Z,6.37
2017-07-27T23:23:37.858Z,7.47
2017-07-27T23:26:03.809Z,6.47
2017-07-27T23:28:29.792Z,6.80
2017-07-27T23:30:55.732Z,7.30
2017-07-27T23:33:21.664Z,5.93
2017-07-27T23:35:47.655Z,6.03
2017-07-27T23:38:13.596Z,6.30
2017-07-27T23:43:31.405Z,5.80
2017-07-27T23:45:58.098Z,7.50
2017-07-27T23:48:24.037Z,6.20
2017-07-27T23:50:50.777Z,6.20
2017-07-27T23:53:16.713Z,7.10
2017-07-27T23:55:42.706Z,8.07
2017-07-27T23:58:08.681Z,6.33
